createdAt,value
2018-01-21T00:01:08.613Z,86.20
2018-01-21T00:03:36.957Z,86.30
2018-01-21T00:06:07.685Z,86.10
2018-01-21T00:08:42.991Z,86.10
2018-01-21T00:11:38.999Z,85.90
2018-01-21T00:14:06.969Z,85.60
2018-01-21T00:16:34.891Z,85.80
2018-01-21T00:19:03.686Z,86.10
2018-01-21T00:21:31.876Z,86.10
2018-01-21T00:24:00.242Z,86.30
2018-01-21T00:26:28.928Z,86.20
2018-01-21T00:28:57.853Z,86.20
2018-01-21T00:31:26.057Z,86.20
2018-01-21T00:33:56.057Z,85.90
2018-01-21T00:36:25.383Z,86.20
2018-01-21T00:38:54.000Z,86.20
2018-01-21T00:41:22.057Z,86.10
2018-01-21T00:43:50.502Z,85.90
2018-01-21T00:46:18.484Z,86.10
2018-01-21T00:48:48.287Z,86.20
2018-01-21T00:51:16.465Z,86.20
2018-01-21T00:53:44.469Z,86.20
2018-01-21T00:56:12.488Z,86.30
2018-01-21T00:58:41.710Z,86.00
2018-01-21T01:01:11.059Z,86.20
2018-01-21T01:03:38.976Z,86.20
2018-01-21T01:06:07.037Z,86.20
2018-01-21T01:08:35.150Z,86.40
2018-01-21T01:11:03.307Z,87.10
2018-01-21T01:13:32.812Z,86.60
2018-01-21T01:16:00.759Z,86.80
2018-01-21T01:18:29.666Z,86.70
2018-01-21T01:20:58.120Z,86.70
2018-01-21T01:23:26.153Z,86.80
2018-01-21T01:25:54.659Z,86.50
2018-01-21T01:28:22.769Z,86.60
2018-01-21T01:30:51.274Z,86.60
2018-01-21T01:33:19.243Z,86.60
2018-01-21T01:38:13.176Z,86.50
2018-01-21T01:40:41.348Z,86.50
2018-01-21T01:43:09.569Z,86.70
2018-01-21T01:45:37.593Z,86.70
2018-01-21T01:48:05.717Z,86.80
2018-01-21T01:50:33.575Z,86.80
2018-01-21T01:53:02.190Z,86.80
2018-01-21T01:55:30.364Z,86.90
2018-01-21T01:57:58.452Z,86.50
2018-01-21T02:00:26.725Z,86.60
2018-01-21T02:02:54.880Z,86.80
2018-01-21T02:05:30.140Z,86.70
2018-01-21T02:07:58.327Z,87.00
2018-01-21T02:10:26.965Z,86.90
2018-01-21T02:12:55.407Z,87.00
2018-01-21T02:15:23.322Z,87.00
2018-01-21T02:17:52.466Z,86.80
2018-01-21T02:20:20.755Z,86.60
2018-01-21T02:22:50.321Z,86.60
2018-01-21T02:25:18.211Z,86.50
2018-01-21T02:27:46.052Z,86.50
2018-01-21T02:30:13.956Z,86.50
2018-01-21T02:32:42.209Z,86.50
2018-01-21T02:35:10.236Z,86.70
2018-01-21T02:37:38.367Z,86.70
2018-01-21T02:40:06.295Z,86.70
2018-01-21T02:42:34.991Z,86.50
2018-01-21T02:45:02.913Z,86.50
2018-01-21T02:47:51.899Z,86.20
2018-01-21T02:50:20.309Z,86.70
2018-01-21T02:52:48.404Z,86.70
2018-01-21T02:55:17.592Z,86.50
2018-01-21T02:57:45.465Z,86.50
2018-01-21T03:00:13.396Z,86.20
2018-01-21T03:02:42.368Z,86.20
2018-01-21T03:05:13.536Z,86.20
2018-01-21T03:07:43.404Z,85.90
2018-01-21T03:10:11.319Z,85.90
2018-01-21T03:12:39.364Z,85.90
2018-01-21T03:15:07.303Z,85.50
2018-01-21T03:17:35.302Z,85.80
2018-01-21T03:20:03.272Z,85.80
2018-01-21T03:22:31.163Z,85.90
2018-01-21T03:24:59.112Z,85.70
2018-01-21T03:27:27.087Z,85.60
2018-01-21T03:29:55.980Z,85.60
2018-01-21T03:32:24.172Z,85.70
2018-01-21T03:34:52.231Z,85.50
2018-01-21T03:37:20.193Z,85.10
2018-01-21T03:39:48.130Z,85.30
2018-01-21T03:42:16.112Z,85.20
2018-01-21T03:44:44.263Z,85.00
2018-01-21T03:47:12.951Z,84.70
2018-01-21T03:49:41.551Z,84.70
2018-01-21T03:52:09.458Z,84.60
2018-01-21T03:54:38.382Z,84.30
2018-01-21T03:57:06.213Z,84.50
2018-01-21T03:59:34.385Z,84.60
2018-01-21T04:02:02.229Z,84.50
2018-01-21T04:04:30.309Z,83.90
2018-01-21T04:06:58.475Z,84.30
2018-01-21T04:09:26.490Z,84.00
2018-01-21T04:11:56.210Z,84.20
2018-01-21T04:14:24.964Z,83.40
2018-01-21T04:16:52.807Z,83.40
2018-01-21T04:19:20.889Z,83.40
2018-01-21T04:21:49.195Z,82.20
2018-01-21T04:24:17.346Z,82.30
2018-01-21T04:26:46.478Z,83.10
2018-01-21T04:29:14.345Z,82.60
2018-01-21T04:31:42.954Z,82.90
2018-01-21T04:34:11.566Z,82.30
2018-01-21T04:36:39.621Z,82.30
2018-01-21T04:39:07.636Z,82.80
2018-01-21T04:41:35.616Z,83.10
2018-01-21T04:44:03.988Z,82.40
2018-01-21T04:46:32.061Z,81.90
2018-01-21T04:48:59.975Z,82.20
2018-01-21T04:51:28.644Z,81.90
2018-01-21T04:53:56.586Z,81.80
2018-01-21T04:56:24.408Z,81.90
2018-01-21T04:58:52.675Z,81.90
2018-01-21T05:01:20.916Z,81.80
2018-01-21T05:03:49.019Z,82.00
2018-01-21T05:06:19.026Z,82.00
2018-01-21T05:08:46.979Z,81.90
2018-01-21T05:11:14.901Z,82.30
2018-01-21T05:13:43.235Z,82.50
2018-01-21T05:16:11.291Z,82.60
2018-01-21T05:18:39.188Z,82.30
2018-01-21T05:21:08.192Z,82.40
2018-01-21T05:23:36.403Z,82.40
2018-01-21T05:26:04.694Z,82.60
2018-01-21T05:28:32.933Z,82.40
2018-01-21T05:31:01.696Z,82.30
2018-01-21T05:33:30.647Z,82.10
2018-01-21T05:35:58.891Z,82.10
2018-01-21T05:38:26.941Z,81.90
2018-01-21T05:40:55.085Z,82.00
2018-01-21T05:43:31.460Z,82.00
2018-01-21T05:45:59.325Z,82.50
2018-01-21T05:48:27.341Z,82.10
2018-01-21T05:51:05.138Z,82.60
2018-01-21T05:53:38.351Z,82.10
2018-01-21T05:56:06.545Z,82.10
2018-01-21T05:58:34.492Z,82.20
2018-01-21T06:01:02.675Z,82.10
2018-01-21T06:03:32.991Z,82.20
2018-01-21T06:06:01.116Z,82.50
2018-01-21T06:08:29.063Z,82.80
2018-01-21T06:10:57.001Z,81.40
2018-01-21T06:13:25.653Z,81.80
2018-01-21T06:15:53.655Z,81.90
2018-01-21T06:18:22.308Z,82.00
2018-01-21T06:20:50.316Z,82.00
2018-01-21T06:23:18.382Z,81.60
2018-01-21T06:25:46.192Z,81.30
2018-01-21T06:28:14.462Z,81.30
2018-01-21T06:30:42.400Z,81.30
2018-01-21T06:33:11.136Z,81.30
2018-01-21T06:35:39.248Z,81.30
2018-01-21T06:38:08.154Z,81.20
2018-01-21T06:40:36.140Z,81.10
2018-01-21T06:43:04.120Z,81.00
2018-01-21T06:45:32.069Z,80.90
2018-01-21T06:48:04.439Z,80.60
2018-01-21T06:50:32.402Z,80.60
2018-01-21T06:53:00.721Z,80.80
2018-01-21T06:55:28.728Z,81.20
2018-01-21T06:57:56.880Z,81.70
2018-01-21T07:00:25.349Z,81.70
2018-01-21T07:02:53.586Z,81.10
2018-01-21T07:05:21.558Z,80.90
2018-01-21T07:07:49.516Z,81.00
2018-01-21T07:10:20.081Z,81.30
2018-01-21T07:12:52.841Z,81.50
2018-01-21T07:15:20.882Z,81.40
2018-01-21T07:17:50.267Z,81.10
2018-01-21T07:20:18.612Z,81.00
2018-01-21T07:22:47.192Z,80.90
2018-01-21T07:25:19.447Z,81.30
2018-01-21T07:27:48.466Z,81.40
2018-01-21T07:30:16.668Z,81.30
2018-01-21T07:32:44.794Z,81.60
2018-01-21T07:35:12.747Z,81.60
2018-01-21T07:37:43.817Z,82.20
2018-01-21T07:40:12.043Z,81.90
2018-01-21T07:42:43.217Z,81.50
2018-01-21T07:45:11.179Z,81.60
2018-01-21T07:47:39.837Z,81.40
2018-01-21T07:50:07.861Z,81.40
2018-01-21T07:52:35.839Z,81.40
2018-01-21T07:55:07.472Z,81.50
2018-01-21T07:57:36.273Z,82.20
2018-01-21T08:00:05.252Z,82.40
2018-01-21T08:02:35.851Z,82.30
2018-01-21T08:05:04.695Z,82.00
2018-01-21T08:07:32.634Z,81.70
2018-01-21T08:10:00.796Z,82.10
2018-01-21T08:12:31.375Z,81.60
2018-01-21T08:14:59.332Z,81.80
2018-01-21T08:17:31.342Z,81.30
2018-01-21T08:20:11.503Z,81.30
2018-01-21T08:22:39.372Z,81.60
2018-01-21T08:25:10.922Z,81.50
2018-01-21T08:27:42.431Z,81.60
2018-01-21T08:30:11.299Z,81.60
2018-01-21T08:32:40.247Z,82.70
2018-01-21T08:36:11.396Z,82.10
2018-01-21T08:39:45.567Z,83.10
2018-01-21T08:42:13.660Z,84.50
2018-01-21T08:44:41.729Z,84.60
2018-01-21T08:47:14.260Z,84.90
2018-01-21T08:49:43.016Z,84.80
2018-01-21T08:52:14.882Z,84.70
2018-01-21T08:54:42.984Z,85.20
2018-01-21T08:57:11.834Z,85.60
2018-01-21T08:59:39.816Z,85.60
2018-01-21T09:02:07.778Z,85.70
2018-01-21T09:04:36.129Z,85.70
2018-01-21T09:07:05.134Z,85.30
2018-01-21T09:09:34.957Z,85.20
2018-01-21T09:12:03.640Z,84.50
2018-01-21T09:14:32.431Z,84.60
2018-01-21T09:17:00.596Z,84.60
2018-01-21T09:19:29.235Z,84.20
2018-01-21T09:21:59.269Z,84.20
2018-01-21T09:24:27.416Z,84.00
2018-01-21T09:26:56.981Z,84.10
2018-01-21T09:29:25.187Z,84.30
2018-01-21T09:31:53.131Z,84.20
2018-01-21T09:34:22.842Z,84.10
2018-01-21T09:36:51.969Z,83.80
2018-01-21T09:39:20.024Z,83.80
2018-01-21T09:41:49.553Z,83.60
2018-01-21T09:44:17.921Z,83.60
2018-01-21T09:46:47.977Z,83.50
2018-01-21T09:49:16.125Z,84.10
2018-01-21T09:51:44.462Z,83.70
2018-01-21T09:54:14.786Z,83.80
2018-01-21T09:56:43.567Z,83.80
2018-01-21T09:59:11.854Z,84.40
2018-01-21T10:01:42.618Z,83.10
2018-01-21T10:04:13.753Z,83.10
2018-01-21T10:06:43.425Z,82.40
2018-01-21T10:09:13.049Z,81.90
2018-01-21T10:11:42.324Z,81.90
2018-01-21T10:14:14.495Z,82.00
2018-01-21T10:16:43.708Z,79.50
2018-01-21T10:19:11.809Z,79.50
2018-01-21T10:21:40.750Z,79.50
2018-01-21T10:24:09.288Z,79.90
2018-01-21T10:26:37.795Z,77.90
2018-01-21T10:29:06.595Z,78.80
2018-01-21T10:31:35.209Z,78.10
2018-01-21T10:34:05.910Z,77.60
2018-01-21T10:36:36.331Z,76.80
2018-01-21T10:39:05.985Z,75.10
2018-01-21T10:41:34.317Z,75.10
2018-01-21T10:44:03.279Z,76.10
2018-01-21T10:46:32.577Z,77.10
2018-01-21T10:49:01.502Z,76.00
2018-01-21T10:51:30.954Z,76.90
2018-01-21T10:53:59.871Z,76.90
2018-01-21T10:56:28.077Z,76.20
2018-01-21T10:58:56.595Z,75.50
2018-01-21T11:01:25.232Z,75.40
2018-01-21T11:03:53.398Z,75.40
2018-01-21T11:06:22.443Z,74.60
2018-01-21T11:08:55.903Z,74.40
2018-01-21T11:11:27.310Z,72.70
2018-01-21T11:13:57.363Z,72.80
2018-01-21T11:16:28.176Z,73.30
2018-01-21T11:18:56.608Z,73.30
2018-01-21T11:21:26.001Z,73.20
2018-01-21T11:23:58.718Z,72.10
2018-01-21T11:26:26.661Z,72.10
2018-01-21T11:28:55.149Z,73.70
2018-01-21T11:31:23.550Z,74.30
2018-01-21T11:33:53.285Z,74.00
2018-01-21T11:36:35.754Z,73.90
2018-01-21T11:39:17.455Z,74.80
2018-01-21T11:41:47.114Z,75.50
2018-01-21T11:44:15.399Z,74.60
2018-01-21T11:46:43.750Z,75.20
2018-01-21T11:49:22.314Z,74.90
2018-01-21T11:51:52.472Z,73.70
2018-01-21T11:54:22.814Z,73.80
2018-01-21T11:57:04.434Z,74.70
2018-01-21T11:59:37.624Z,74.30
2018-01-21T12:05:03.728Z,73.30
2018-01-21T12:07:44.647Z,73.80
2018-01-21T12:10:14.862Z,73.70
2018-01-21T12:12:43.523Z,73.70
2018-01-21T12:15:11.927Z,72.60
2018-01-21T12:17:40.556Z,72.10
2018-01-21T12:20:09.828Z,71.80
2018-01-21T12:22:40.213Z,71.10
2018-01-21T12:25:08.410Z,71.10
2018-01-21T12:27:38.618Z,69.80
2018-01-21T12:30:07.233Z,72.10
2018-01-21T12:32:35.867Z,72.10
2018-01-21T12:35:09.324Z,71.50
2018-01-21T12:37:39.096Z,70.50
2018-01-21T12:40:12.060Z,70.40
2018-01-21T12:42:40.685Z,70.70
2018-01-21T12:45:09.518Z,71.30
2018-01-21T12:47:37.854Z,70.70
2018-01-21T12:50:06.340Z,70.60
2018-01-21T12:52:39.486Z,71.10
2018-01-21T12:55:07.910Z,71.10
2018-01-21T12:57:36.330Z,70.10
2018-01-21T13:00:05.142Z,70.50
2018-01-21T13:02:34.130Z,70.00
2018-01-21T13:05:03.379Z,70.80
2018-01-21T13:07:36.421Z,70.80
2018-01-21T13:10:05.813Z,69.50
2018-01-21T13:12:35.253Z,68.20
2018-01-21T13:15:03.496Z,68.20
2018-01-21T13:17:35.514Z,67.50
2018-01-21T13:20:04.185Z,68.30
2018-01-21T13:22:34.780Z,68.60
2018-01-21T13:25:03.540Z,69.90
2018-01-21T13:27:31.897Z,69.30
2018-01-21T13:30:00.544Z,69.00
2018-01-21T13:32:29.765Z,68.20
2018-01-21T13:34:58.425Z,68.20
2018-01-21T13:37:27.363Z,67.60
2018-01-21T13:39:56.414Z,66.70
2018-01-21T13:42:26.432Z,66.70
2018-01-21T13:44:57.769Z,66.40
2018-01-21T13:47:27.146Z,65.30
2018-01-21T13:49:55.785Z,65.30
2018-01-21T13:52:39.927Z,65.80
2018-01-21T13:55:08.440Z,65.80
2018-01-21T13:57:39.304Z,66.50
2018-01-21T14:00:08.098Z,66.40
2018-01-21T14:02:36.817Z,65.50
2018-01-21T14:05:51.304Z,65.60
2018-01-21T14:08:21.068Z,66.20
2018-01-21T14:10:50.796Z,66.50
2018-01-21T14:13:21.240Z,66.00
2018-01-21T14:15:49.678Z,66.70
2018-01-21T14:18:21.812Z,67.40
2018-01-21T14:20:53.372Z,67.40
2018-01-21T14:23:31.014Z,68.40
2018-01-21T14:25:59.544Z,68.40
2018-01-21T14:28:36.739Z,68.30
2018-01-21T14:31:12.169Z,68.10
2018-01-21T14:33:42.707Z,67.90
2018-01-21T14:36:11.546Z,67.60
2018-01-21T14:38:40.755Z,69.10
2018-01-21T14:41:27.355Z,69.10
2018-01-21T14:43:57.762Z,68.90
2018-01-21T14:46:26.355Z,68.90
2018-01-21T14:48:54.611Z,69.30
2018-01-21T14:51:22.714Z,68.80
2018-01-21T14:53:51.122Z,69.00
2018-01-21T14:56:47.108Z,68.90
2018-01-21T14:59:17.542Z,70.30
2018-01-21T15:01:50.666Z,70.30
2018-01-21T15:04:19.969Z,70.50
2018-01-21T15:06:49.138Z,70.60
2018-01-21T15:09:18.154Z,70.50
2018-01-21T15:11:47.418Z,70.70
2018-01-21T15:14:16.892Z,70.70
2018-01-21T15:16:46.173Z,70.80
2018-01-21T15:19:16.183Z,71.10
2018-01-21T15:21:47.720Z,71.00
2018-01-21T15:24:17.351Z,71.30
2018-01-21T15:26:45.492Z,71.30
2018-01-21T15:29:15.980Z,71.10
2018-01-21T15:31:44.186Z,72.10
2018-01-21T15:34:12.441Z,72.00
2018-01-21T15:36:43.358Z,72.10
2018-01-21T15:39:19.758Z,71.90
2018-01-21T15:42:01.027Z,71.80
2018-01-21T15:44:29.658Z,71.20
2018-01-21T15:46:59.400Z,71.90
2018-01-21T15:49:33.697Z,72.00
2018-01-21T15:52:03.744Z,72.80
2018-01-21T15:54:39.663Z,73.10
2018-01-21T15:57:10.094Z,73.30
2018-01-21T15:59:39.793Z,73.30
2018-01-21T16:02:08.827Z,74.60
2018-01-21T16:04:39.992Z,74.30
2018-01-21T16:07:17.644Z,74.30
2018-01-21T16:10:22.679Z,74.20
2018-01-21T16:12:58.709Z,74.10
2018-01-21T16:15:34.013Z,74.30
2018-01-21T16:18:05.769Z,74.30
2018-01-21T16:20:38.843Z,74.20
2018-01-21T16:23:11.538Z,74.70
2018-01-21T16:25:44.142Z,74.70
2018-01-21T16:28:17.130Z,75.00
2018-01-21T16:30:53.912Z,75.20
2018-01-21T16:33:30.677Z,75.60
2018-01-21T16:35:59.634Z,75.50
2018-01-21T16:39:08.836Z,75.70
2018-01-21T16:41:40.563Z,76.10
2018-01-21T16:46:36.630Z,76.80
2018-01-21T16:49:06.945Z,76.70
2018-01-21T16:51:35.183Z,76.50
2018-01-21T16:54:04.154Z,77.00
2018-01-21T16:56:33.624Z,77.00
2018-01-21T16:59:05.864Z,77.50
2018-01-21T17:01:37.580Z,77.80
2018-01-21T17:04:09.494Z,77.60
2018-01-21T17:06:39.265Z,77.60
2018-01-21T17:09:09.210Z,78.40
2018-01-21T17:11:39.058Z,78.40
2018-01-21T17:14:12.139Z,78.30
2018-01-21T17:16:42.949Z,78.50
2018-01-21T17:19:34.225Z,78.80
2018-01-21T17:22:08.135Z,79.00
2018-01-21T17:24:37.207Z,78.90
2018-01-21T17:27:12.781Z,78.80
2018-01-21T17:29:42.306Z,79.20
2018-01-21T17:32:10.465Z,79.20
2018-01-21T17:34:56.318Z,79.00
2018-01-21T17:37:26.141Z,79.10
2018-01-21T17:39:55.970Z,79.40
2018-01-21T17:42:28.818Z,79.20
2018-01-21T17:44:58.446Z,79.20
2018-01-21T17:47:39.753Z,79.50
2018-01-21T17:50:09.651Z,79.40
2018-01-21T17:52:37.866Z,79.30
2018-01-21T17:55:12.948Z,79.20
2018-01-21T17:58:03.564Z,79.00
2018-01-21T18:00:32.148Z,79.10
2018-01-21T18:03:02.366Z,79.20
2018-01-21T18:05:31.397Z,79.20
2018-01-21T18:08:03.838Z,79.90
2018-01-21T18:10:35.819Z,79.20
2018-01-21T18:13:08.283Z,79.10
2018-01-21T18:15:41.040Z,79.20
2018-01-21T18:18:09.781Z,79.20
2018-01-21T18:21:03.864Z,79.30
2018-01-21T18:23:33.766Z,79.30
2018-01-21T18:26:03.429Z,79.40
2018-01-21T18:28:34.855Z,79.00
2018-01-21T18:31:04.424Z,79.00
2018-01-21T18:33:32.979Z,79.10
2018-01-21T18:36:04.759Z,78.80
2018-01-21T18:38:37.661Z,78.80
2018-01-21T18:41:10.592Z,78.70
2018-01-21T18:43:39.271Z,79.20
2018-01-21T18:46:08.052Z,79.10
2018-01-21T18:48:42.565Z,79.10
2018-01-21T18:51:11.447Z,79.10
2018-01-21T18:53:40.369Z,78.90
2018-01-21T18:56:11.013Z,79.20
2018-01-21T18:58:42.095Z,79.30
2018-01-21T19:01:11.739Z,79.50
2018-01-21T19:03:43.907Z,79.70
2018-01-21T19:06:14.881Z,79.90
2018-01-21T19:09:16.019Z,80.10
2018-01-21T19:11:46.866Z,80.00
2018-01-21T19:14:24.740Z,80.00
2018-01-21T19:16:56.607Z,79.90
2018-01-21T19:19:31.353Z,80.20
2018-01-21T19:22:03.045Z,80.30
2018-01-21T19:24:36.737Z,80.10
2018-01-21T19:27:10.496Z,80.10
2018-01-21T19:29:42.872Z,79.80
2018-01-21T19:32:12.244Z,79.80
2018-01-21T19:34:42.142Z,79.80
2018-01-21T19:37:13.797Z,79.90
2018-01-21T19:39:43.727Z,80.00
2018-01-21T19:42:15.680Z,79.90
2018-01-21T19:44:46.990Z,80.00
2018-01-21T19:47:19.564Z,80.10
2018-01-21T19:49:53.216Z,79.80
2018-01-21T19:52:25.327Z,79.80
2018-01-21T19:54:56.151Z,79.90
2018-01-21T19:57:28.756Z,79.90
2018-01-21T19:59:59.116Z,79.90
2018-01-21T20:02:41.959Z,80.10
2018-01-21T20:05:13.767Z,80.30
2018-01-21T20:07:53.108Z,80.40
2018-01-21T20:10:24.981Z,80.30
2018-01-21T20:12:55.658Z,80.60
2018-01-21T20:15:26.108Z,80.60
2018-01-21T20:17:56.104Z,80.70
2018-01-21T20:20:28.235Z,80.50
2018-01-21T20:23:41.772Z,80.70
2018-01-21T20:26:13.686Z,80.50
2018-01-21T20:28:46.785Z,80.70
2018-01-21T20:31:19.613Z,81.00
2018-01-21T20:33:49.031Z,81.00
2018-01-21T20:36:17.895Z,81.10
2018-01-21T20:38:48.401Z,81.60
2018-01-21T20:41:20.920Z,81.10
2018-01-21T20:43:56.194Z,81.10
2018-01-21T20:46:28.959Z,81.00
2018-01-21T20:48:58.164Z,81.10
2018-01-21T20:51:33.148Z,81.40
2018-01-21T20:54:14.128Z,81.40
2018-01-21T20:56:47.905Z,81.20
2018-01-21T20:59:26.567Z,81.50
2018-01-21T21:01:56.432Z,81.40
2018-01-21T21:04:25.538Z,81.20
2018-01-21T21:06:56.584Z,81.30
2018-01-21T21:09:27.478Z,81.40
2018-01-21T21:12:03.496Z,81.10
2018-01-21T21:14:35.053Z,81.00
2018-01-21T21:17:04.288Z,81.00
2018-01-21T21:20:11.310Z,80.90
2018-01-21T21:22:39.569Z,80.90
2018-01-21T21:25:08.839Z,81.20
2018-01-21T21:27:39.641Z,81.50
2018-01-21T21:30:09.701Z,81.80
2018-01-21T21:32:38.524Z,81.70
2018-01-21T21:35:08.036Z,81.90
2018-01-21T21:37:36.471Z,81.70
2018-01-21T21:40:07.000Z,81.50
2018-01-21T21:42:36.093Z,81.40
2018-01-21T21:45:05.472Z,81.50
2018-01-21T21:47:34.217Z,81.50
2018-01-21T21:50:02.979Z,81.60
2018-01-21T21:52:32.433Z,81.60
2018-01-21T21:55:00.847Z,81.60
2018-01-21T21:57:30.663Z,81.40
2018-01-21T21:59:59.432Z,81.30
2018-01-21T22:02:27.829Z,81.60
2018-01-21T22:04:56.180Z,81.60
2018-01-21T22:07:25.985Z,81.40
2018-01-21T22:09:54.688Z,81.50
2018-01-21T22:12:24.479Z,80.70
2018-01-21T22:14:53.057Z,80.70
2018-01-21T22:17:21.756Z,81.20
2018-01-21T22:19:51.165Z,80.40
2018-01-21T22:22:19.311Z,80.40
2018-01-21T22:24:48.342Z,80.20
2018-01-21T22:27:17.018Z,80.30
2018-01-21T22:29:46.164Z,80.60
2018-01-21T22:32:15.534Z,80.00
2018-01-21T22:34:45.128Z,79.90
2018-01-21T22:37:13.827Z,80.00
2018-01-21T22:39:42.522Z,79.80
2018-01-21T22:42:11.212Z,79.90
2018-01-21T22:44:40.847Z,79.80
2018-01-21T22:47:09.799Z,79.60
2018-01-21T22:49:39.445Z,79.50
2018-01-21T22:52:10.952Z,79.50
2018-01-21T22:54:41.225Z,79.50
2018-01-21T22:57:13.504Z,79.40
2018-01-21T22:59:44.394Z,79.20
2018-01-21T23:02:12.494Z,79.20
2018-01-21T23:04:41.307Z,79.30
2018-01-21T23:07:09.571Z,79.30
2018-01-21T23:09:38.463Z,79.30
2018-01-21T23:12:07.245Z,79.50
2018-01-21T23:14:36.115Z,79.40
2018-01-21T23:17:10.744Z,79.40
2018-01-21T23:19:38.699Z,79.20
2018-01-21T23:22:06.589Z,79.20
2018-01-21T23:24:35.905Z,79.10
2018-01-21T23:27:04.134Z,79.30
2018-01-21T23:29:32.141Z,79.00
2018-01-21T23:32:01.419Z,78.90
2018-01-21T23:34:33.258Z,79.10
2018-01-21T23:37:01.302Z,79.10
2018-01-21T23:39:30.309Z,79.30
2018-01-21T23:42:00.231Z,79.00
2018-01-21T23:44:28.359Z,78.90
2018-01-21T23:46:57.865Z,79.00
2018-01-21T23:49:26.388Z,78.90
2018-01-21T23:51:54.412Z,78.80
2018-01-21T23:54:29.443Z,78.70
2018-01-21T23:56:57.807Z,78.80
2018-01-21T23:59:26.645Z,78.80
